sensor_id;sensor_type;location;lat;lon;timestamp;temperature;humidity
40255;DHT22;25973;52.368;4.940;2022-09-09T00:03:55;17.20;99.90
40255;DHT22;25973;52.368;4.940;2022-09-09T00:06:31;17.30;99.90
40255;DHT22;25973;52.368;4.940;2022-09-09T00:09:17;17.20;99.90
40255;DHT22;25973;52.368;4.940;2022-09-09T00:11:47;17.20;99.90
40255;DHT22;25973;52.368;4.940;2022-09-09T00:16:56;17.20;99.90
40255;DHT22;25973;52.368;4.940;2022-09-09T00:19:33;17.10;99.90
40255;DHT22;25973;52.368;4.940;2022-09-09T00:22:19;17.10;99.90
40255;DHT22;25973;52.368;4.940;2022-09-09T00:24:49;17.10;99.90
40255;DHT22;25973;52.368;4.940;2022-09-09T00:27:31;17.10;99.90
40255;DHT22;25973;52.368;4.940;2022-09-09T00:30:17;17.10;99.90
40255;DHT22;25973;52.368;4.940;2022-09-09T00:32:45;17.10;99.90
40255;DHT22;25973;52.368;4.940;2022-09-09T00:35:21;17.00;99.90
40255;DHT22;25973;52.368;4.940;2022-09-09T00:37:48;17.00;99.90
40255;DHT22;25973;52.368;4.940;2022-09-09T00:43:26;17.00;99.90
40255;DHT22;25973;52.368;4.940;2022-09-09T00:52:01;17.00;99.90
40255;DHT22;25973;52.368;4.940;2022-09-09T00:57:35;16.90;99.90
40255;DHT22;25973;52.368;4.940;2022-09-09T01:00:22;16.90;99.90
40255;DHT22;25973;52.368;4.940;2022-09-09T01:05:40;16.90;99.90
40255;DHT22;25973;52.368;4.940;2022-09-09T01:11:22;16.80;99.90
40255;DHT22;25973;52.368;4.940;2022-09-09T01:13:58;16.80;99.90
40255;DHT22;25973;52.368;4.940;2022-09-09T01:16:26;16.80;99.90
40255;DHT22;25973;52.368;4.940;2022-09-09T01:18:54;16.80;99.90
40255;DHT22;25973;52.368;4.940;2022-09-09T01:21:40;16.80;99.90
40255;DHT22;25973;52.368;4.940;2022-09-09T01:26:45;16.70;99.90
40255;DHT22;25973;52.368;4.940;2022-09-09T01:29:16;16.70;99.90
40255;DHT22;25973;52.368;4.940;2022-09-09T01:31:58;16.70;99.90
40255;DHT22;25973;52.368;4.940;2022-09-09T01:34:27;16.70;99.90
40255;DHT22;25973;52.368;4.940;2022-09-09T01:36:57;16.60;99.90
40255;DHT22;25973;52.368;4.940;2022-09-09T01:39:25;16.60;99.90
40255;DHT22;25973;52.368;4.940;2022-09-09T01:41:51;16.60;99.90
40255;DHT22;25973;52.368;4.940;2022-09-09T01:44:17;16.60;99.90
40255;DHT22;25973;52.368;4.940;2022-09-09T01:46:44;16.50;99.90
40255;DHT22;25973;52.368;4.940;2022-09-09T01:49:10;16.50;99.90
40255;DHT22;25973;52.368;4.940;2022-09-09T01:51:37;16.50;99.90
40255;DHT22;25973;52.368;4.940;2022-09-09T01:54:05;16.40;99.90
40255;DHT22;25973;52.368;4.940;2022-09-09T01:56:54;16.40;99.90
40255;DHT22;25973;52.368;4.940;2022-09-09T01:59:50;16.40;99.90
40255;DHT22;25973;52.368;4.940;2022-09-09T02:02:23;16.30;99.90
40255;DHT22;25973;52.368;4.940;2022-09-09T02:04:56;16.30;99.90
40255;DHT22;25973;52.368;4.940;2022-09-09T02:07:36;16.30;99.90
40255;DHT22;25973;52.368;4.940;2022-09-09T02:10:14;16.30;99.90
40255;DHT22;25973;52.368;4.940;2022-09-09T02:12:44;16.30;99.90
40255;DHT22;25973;52.368;4.940;2022-09-09T02:15:27;16.30;99.90
40255;DHT22;25973;52.368;4.940;2022-09-09T02:17:57;16.30;99.90
40255;DHT22;25973;52.368;4.940;2022-09-09T02:20:24;16.30;99.90
40255;DHT22;25973;52.368;4.940;2022-09-09T02:22:53;16.30;99.90
40255;DHT22;25973;52.368;4.940;2022-09-09T02:25:22;16.30;99.90
40255;DHT22;25973;52.368;4.940;2022-09-09T02:27:50;16.30;99.90
40255;DHT22;25973;52.368;4.940;2022-09-09T02:30:17;16.30;99.90
40255;DHT22;25973;52.368;4.940;2022-09-09T02:32:43;16.30;99.90
40255;DHT22;25973;52.368;4.940;2022-09-09T02:35:17;16.30;99.90
40255;DHT22;25973;52.368;4.940;2022-09-09T02:37:44;16.40;99.90
40255;DHT22;25973;52.368;4.940;2022-09-09T02:40:13;16.30;99.90
40255;DHT22;25973;52.368;4.940;2022-09-09T02:42:42;16.30;99.90
40255;DHT22;25973;52.368;4.940;2022-09-09T02:45:10;16.30;99.90
40255;DHT22;25973;52.368;4.940;2022-09-09T02:50:33;16.30;99.90
40255;DHT22;25973;52.368;4.940;2022-09-09T02:53:22;16.30;99.90
40255;DHT22;25973;52.368;4.940;2022-09-09T02:56:09;16.30;99.90
40255;DHT22;25973;52.368;4.940;2022-09-09T02:58:39;16.20;99.90
40255;DHT22;25973;52.368;4.940;2022-09-09T03:01:08;16.20;99.90
40255;DHT22;25973;52.368;4.940;2022-09-09T03:03:34;16.10;99.90
40255;DHT22;25973;52.368;4.940;2022-09-09T03:06:00;16.10;99.90
40255;DHT22;25973;52.368;4.940;2022-09-09T03:08:26;16.00;99.90
40255;DHT22;25973;52.368;4.940;2022-09-09T03:10:54;16.00;99.90
40255;DHT22;25973;52.368;4.940;2022-09-09T03:13:20;16.00;99.90
40255;DHT22;25973;52.368;4.940;2022-09-09T03:15:45;16.00;99.90
40255;DHT22;25973;52.368;4.940;2022-09-09T03:18:11;15.90;99.90
40255;DHT22;25973;52.368;4.940;2022-09-09T03:20:36;15.90;99.90
40255;DHT22;25973;52.368;4.940;2022-09-09T03:23:02;15.80;99.90
40255;DHT22;25973;52.368;4.940;2022-09-09T03:25:28;15.80;99.90
40255;DHT22;25973;52.368;4.940;2022-09-09T03:27:54;15.80;99.90
40255;DHT22;25973;52.368;4.940;2022-09-09T03:30:24;15.80;99.90
40255;DHT22;25973;52.368;4.940;2022-09-09T03:32:50;15.80;99.90
40255;DHT22;25973;52.368;4.940;2022-09-09T03:35:16;15.90;99.90
40255;DHT22;25973;52.368;4.940;2022-09-09T03:37:42;15.80;99.90
40255;DHT22;25973;52.368;4.940;2022-09-09T03:40:08;15.80;99.90
40255;DHT22;25973;52.368;4.940;2022-09-09T03:42:35;15.70;99.90
40255;DHT22;25973;52.368;4.940;2022-09-09T03:45:05;15.70;99.90
40255;DHT22;25973;52.368;4.940;2022-09-09T03:47:31;15.70;99.90
40255;DHT22;25973;52.368;4.940;2022-09-09T03:49:57;15.70;99.90
40255;DHT22;25973;52.368;4.940;2022-09-09T03:52:22;15.70;99.90
40255;DHT22;25973;52.368;4.940;2022-09-09T03:54:50;15.60;99.90
40255;DHT22;25973;52.368;4.940;2022-09-09T03:57:16;15.60;99.90
40255;DHT22;25973;52.368;4.940;2022-09-09T03:59:43;15.50;99.90
40255;DHT22;25973;52.368;4.940;2022-09-09T04:02:08;15.50;99.90
40255;DHT22;25973;52.368;4.940;2022-09-09T04:04:34;15.50;99.90
40255;DHT22;25973;52.368;4.940;2022-09-09T04:07:00;15.50;99.90
40255;DHT22;25973;52.368;4.940;2022-09-09T04:09:26;15.50;99.90
40255;DHT22;25973;52.368;4.940;2022-09-09T04:11:52;15.40;99.90
40255;DHT22;25973;52.368;4.940;2022-09-09T04:14:18;15.40;99.90
40255;DHT22;25973;52.368;4.940;2022-09-09T04:16:44;15.40;99.90
40255;DHT22;25973;52.368;4.940;2022-09-09T04:19:11;15.30;99.90
40255;DHT22;25973;52.368;4.940;2022-09-09T04:21:40;15.30;99.90
40255;DHT22;25973;52.368;4.940;2022-09-09T04:24:07;15.40;99.90
40255;DHT22;25973;52.368;4.940;2022-09-09T04:26:33;15.40;99.90
40255;DHT22;25973;52.368;4.940;2022-09-09T04:28:59;15.40;99.90
40255;DHT22;25973;52.368;4.940;2022-09-09T04:31:25;15.40;99.90
40255;DHT22;25973;52.368;4.940;2022-09-09T04:33:51;15.40;99.90
40255;DHT22;25973;52.368;4.940;2022-09-09T04:36:18;15.40;99.90
40255;DHT22;25973;52.368;4.940;2022-09-09T04:38:45;15.40;99.90
40255;DHT22;25973;52.368;4.940;2022-09-09T04:41:11;15.50;99.90
40255;DHT22;25973;52.368;4.940;2022-09-09T04:43:40;15.50;99.90
40255;DHT22;25973;52.368;4.940;2022-09-09T04:46:06;15.40;99.90
40255;DHT22;25973;52.368;4.940;2022-09-09T04:48:32;15.40;99.90
40255;DHT22;25973;52.368;4.940;2022-09-09T04:51:09;15.40;99.90
40255;DHT22;25973;52.368;4.940;2022-09-09T04:53:36;15.40;99.90
40255;DHT22;25973;52.368;4.940;2022-09-09T04:56:12;15.40;99.90
40255;DHT22;25973;52.368;4.940;2022-09-09T04:58:39;15.40;99.90
40255;DHT22;25973;52.368;4.940;2022-09-09T05:01:10;15.40;99.90
40255;DHT22;25973;52.368;4.940;2022-09-09T05:03:36;15.40;99.90
40255;DHT22;25973;52.368;4.940;2022-09-09T05:06:07;15.40;99.90
40255;DHT22;25973;52.368;4.940;2022-09-09T05:08:38;15.40;99.90
40255;DHT22;25973;52.368;4.940;2022-09-09T05:11:15;15.40;99.90
40255;DHT22;25973;52.368;4.940;2022-09-09T05:13:41;15.40;99.90
40255;DHT22;25973;52.368;4.940;2022-09-09T05:16:10;15.40;99.90
40255;DHT22;25973;52.368;4.940;2022-09-09T05:18:39;15.40;99.90
40255;DHT22;25973;52.368;4.940;2022-09-09T05:21:05;15.50;99.90
40255;DHT22;25973;52.368;4.940;2022-09-09T05:23:32;15.40;99.90
40255;DHT22;25973;52.368;4.940;2022-09-09T05:25:59;15.40;99.90
40255;DHT22;25973;52.368;4.940;2022-09-09T05:28:26;15.40;99.90
40255;DHT22;25973;52.368;4.940;2022-09-09T05:30:56;15.50;99.90
40255;DHT22;25973;52.368;4.940;2022-09-09T05:33:23;15.40;99.90
40255;DHT22;25973;52.368;4.940;2022-09-09T05:35:58;15.40;99.90
40255;DHT22;25973;52.368;4.940;2022-09-09T05:38:23;15.40;99.90
40255;DHT22;25973;52.368;4.940;2022-09-09T05:40:52;15.50;99.90
40255;DHT22;25973;52.368;4.940;2022-09-09T05:43:19;15.50;99.90
40255;DHT22;25973;52.368;4.940;2022-09-09T05:45:48;15.50;99.90
40255;DHT22;25973;52.368;4.940;2022-09-09T05:48:15;15.50;99.90
40255;DHT22;25973;52.368;4.940;2022-09-09T05:50:41;15.50;99.90
40255;DHT22;25973;52.368;4.940;2022-09-09T05:53:08;15.50;99.90
40255;DHT22;25973;52.368;4.940;2022-09-09T05:55:34;15.60;99.90
40255;DHT22;25973;52.368;4.940;2022-09-09T05:57:59;15.60;99.90
40255;DHT22;25973;52.368;4.940;2022-09-09T06:00:26;15.60;99.90
40255;DHT22;25973;52.368;4.940;2022-09-09T06:02:52;15.60;99.90
40255;DHT22;25973;52.368;4.940;2022-09-09T06:05:19;15.70;99.90
40255;DHT22;25973;52.368;4.940;2022-09-09T06:07:45;15.60;99.90
40255;DHT22;25973;52.368;4.940;2022-09-09T06:10:11;15.70;99.90
40255;DHT22;25973;52.368;4.940;2022-09-09T06:12:39;15.80;99.90
40255;DHT22;25973;52.368;4.940;2022-09-09T06:15:05;15.90;99.90
40255;DHT22;25973;52.368;4.940;2022-09-09T06:17:34;16.00;99.90
40255;DHT22;25973;52.368;4.940;2022-09-09T06:19:59;16.10;99.90
40255;DHT22;25973;52.368;4.940;2022-09-09T06:22:25;16.20;99.90
40255;DHT22;25973;52.368;4.940;2022-09-09T06:24:51;16.30;99.90
40255;DHT22;25973;52.368;4.940;2022-09-09T06:27:19;16.40;99.90
40255;DHT22;25973;52.368;4.940;2022-09-09T06:29:45;16.40;99.90
40255;DHT22;25973;52.368;4.940;2022-09-09T06:32:10;16.40;99.90
40255;DHT22;25973;52.368;4.940;2022-09-09T06:34:36;16.50;99.90
40255;DHT22;25973;52.368;4.940;2022-09-09T06:37:02;16.50;99.90
40255;DHT22;25973;52.368;4.940;2022-09-09T06:39:28;16.50;99.90
40255;DHT22;25973;52.368;4.940;2022-09-09T06:41:53;16.50;99.90
40255;DHT22;25973;52.368;4.940;2022-09-09T06:44:19;16.50;99.90
40255;DHT22;25973;52.368;4.940;2022-09-09T06:46:45;16.60;99.90
40255;DHT22;25973;52.368;4.940;2022-09-09T06:49:13;16.70;99.90
40255;DHT22;25973;52.368;4.940;2022-09-09T06:51:38;16.90;99.90
40255;DHT22;25973;52.368;4.940;2022-09-09T06:54:08;17.10;99.90
40255;DHT22;25973;52.368;4.940;2022-09-09T06:56:36;17.40;99.90
40255;DHT22;25973;52.368;4.940;2022-09-09T06:59:04;17.60;99.90
40255;DHT22;25973;52.368;4.940;2022-09-09T07:01:33;17.80;99.90
40255;DHT22;25973;52.368;4.940;2022-09-09T07:04:00;18.10;99.90
40255;DHT22;25973;52.368;4.940;2022-09-09T07:06:30;18.30;99.90
40255;DHT22;25973;52.368;4.940;2022-09-09T07:08:57;18.50;99.90
40255;DHT22;25973;52.368;4.940;2022-09-09T07:11:26;18.60;99.90
40255;DHT22;25973;52.368;4.940;2022-09-09T07:13:52;18.70;99.90
40255;DHT22;25973;52.368;4.940;2022-09-09T07:16:20;18.80;99.90
40255;DHT22;25973;52.368;4.940;2022-09-09T07:18:46;18.70;99.90
40255;DHT22;25973;52.368;4.940;2022-09-09T07:21:13;18.70;99.90
40255;DHT22;25973;52.368;4.940;2022-09-09T07:23:39;18.60;99.90
40255;DHT22;25973;52.368;4.940;2022-09-09T07:26:14;18.40;99.90
40255;DHT22;25973;52.368;4.940;2022-09-09T07:28:41;18.30;99.90
40255;DHT22;25973;52.368;4.940;2022-09-09T07:31:13;18.20;99.90
40255;DHT22;25973;52.368;4.940;2022-09-09T07:33:40;18.30;99.90
40255;DHT22;25973;52.368;4.940;2022-09-09T07:36:20;18.20;99.90
40255;DHT22;25973;52.368;4.940;2022-09-09T07:38:51;18.10;99.90
40255;DHT22;25973;52.368;4.940;2022-09-09T07:41:21;18.00;99.90
40255;DHT22;25973;52.368;4.940;2022-09-09T07:43:47;17.90;99.90
40255;DHT22;25973;52.368;4.940;2022-09-09T07:46:15;17.90;99.90
40255;DHT22;25973;52.368;4.940;2022-09-09T07:48:49;17.90;99.90
40255;DHT22;25973;52.368;4.940;2022-09-09T07:51:19;17.80;99.90
40255;DHT22;25973;52.368;4.940;2022-09-09T07:53:45;17.90;99.90
40255;DHT22;25973;52.368;4.940;2022-09-09T07:56:14;17.90;99.90
40255;DHT22;25973;52.368;4.940;2022-09-09T07:58:41;17.90;99.90
40255;DHT22;25973;52.368;4.940;2022-09-09T08:01:12;17.90;99.90
40255;DHT22;25973;52.368;4.940;2022-09-09T08:03:38;17.90;99.90
40255;DHT22;25973;52.368;4.940;2022-09-09T08:06:06;17.90;99.90
40255;DHT22;25973;52.368;4.940;2022-09-09T08:08:36;17.90;99.90
40255;DHT22;25973;52.368;4.940;2022-09-09T08:11:14;17.90;99.90
40255;DHT22;25973;52.368;4.940;2022-09-09T08:13:40;17.90;99.90
40255;DHT22;25973;52.368;4.940;2022-09-09T08:16:08;17.90;99.90
40255;DHT22;25973;52.368;4.940;2022-09-09T08:18:34;17.90;99.90
40255;DHT22;25973;52.368;4.940;2022-09-09T08:21:14;18.00;99.90
40255;DHT22;25973;52.368;4.940;2022-09-09T08:23:44;18.10;99.90
40255;DHT22;25973;52.368;4.940;2022-09-09T08:26:22;18.10;99.90
40255;DHT22;25973;52.368;4.940;2022-09-09T08:28:52;18.30;99.90
40255;DHT22;25973;52.368;4.940;2022-09-09T08:31:24;18.30;99.90
40255;DHT22;25973;52.368;4.940;2022-09-09T08:33:50;18.30;99.90
40255;DHT22;25973;52.368;4.940;2022-09-09T08:36:20;18.20;99.90
40255;DHT22;25973;52.368;4.940;2022-09-09T08:38:56;18.20;99.90
40255;DHT22;25973;52.368;4.940;2022-09-09T08:44:12;18.10;99.90
40255;DHT22;25973;52.368;4.940;2022-09-09T08:55:24;18.10;99.90
40255;DHT22;25973;52.368;4.940;2022-09-09T08:57:53;18.10;99.90
40255;DHT22;25973;52.368;4.940;2022-09-09T09:00:20;18.10;99.90
40255;DHT22;25973;52.368;4.940;2022-09-09T09:06:00;18.20;99.90
40255;DHT22;25973;52.368;4.940;2022-09-09T09:08:59;18.20;99.90
40255;DHT22;25973;52.368;4.940;2022-09-09T09:11:21;18.20;99.90
40255;DHT22;25973;52.368;4.940;2022-09-09T09:14:03;18.10;99.90
40255;DHT22;25973;52.368;4.940;2022-09-09T09:19:13;18.00;99.90
40255;DHT22;25973;52.368;4.940;2022-09-09T09:21:44;17.90;99.90
40255;DHT22;25973;52.368;4.940;2022-09-09T09:24:23;18.00;99.90
40255;DHT22;25973;52.368;4.940;2022-09-09T09:26:51;18.00;99.90
40255;DHT22;25973;52.368;4.940;2022-09-09T09:29:19;18.00;99.90
40255;DHT22;25973;52.368;4.940;2022-09-09T09:31:53;18.10;99.90
40255;DHT22;25973;52.368;4.940;2022-09-09T09:34:21;18.10;99.90
40255;DHT22;25973;52.368;4.940;2022-09-09T09:36:53;18.10;99.90
40255;DHT22;25973;52.368;4.940;2022-09-09T09:39:28;18.10;99.90
40255;DHT22;25973;52.368;4.940;2022-09-09T09:41:54;18.20;99.90
40255;DHT22;25973;52.368;4.940;2022-09-09T09:44:27;18.30;99.90
40255;DHT22;25973;52.368;4.940;2022-09-09T09:47:04;18.30;99.90
40255;DHT22;25973;52.368;4.940;2022-09-09T09:49:34;18.30;99.90
40255;DHT22;25973;52.368;4.940;2022-09-09T09:52:04;18.40;99.90
40255;DHT22;25973;52.368;4.940;2022-09-09T09:54:38;18.40;99.90
40255;DHT22;25973;52.368;4.940;2022-09-09T09:57:16;18.40;99.90
40255;DHT22;25973;52.368;4.940;2022-09-09T09:59:43;18.30;99.90
40255;DHT22;25973;52.368;4.940;2022-09-09T10:02:22;18.40;99.90
40255;DHT22;25973;52.368;4.940;2022-09-09T10:05:03;18.30;99.90
40255;DHT22;25973;52.368;4.940;2022-09-09T10:07:29;18.40;99.90
40255;DHT22;25973;52.368;4.940;2022-09-09T10:09:56;18.40;99.90
40255;DHT22;25973;52.368;4.940;2022-09-09T10:12:37;18.30;99.90
40255;DHT22;25973;52.368;4.940;2022-09-09T10:15:33;18.30;99.90
40255;DHT22;25973;52.368;4.940;2022-09-09T10:29:24;19.30;99.90
40255;DHT22;25973;52.368;4.940;2022-09-09T10:37:26;19.70;99.90
40255;DHT22;25973;52.368;4.940;2022-09-09T10:40:08;19.50;99.90
40255;DHT22;25973;52.368;4.940;2022-09-09T10:42:42;19.30;99.90
40255;DHT22;25973;52.368;4.940;2022-09-09T10:55:50;19.40;99.90
40255;DHT22;25973;52.368;4.940;2022-09-09T10:58:28;19.40;99.90
40255;DHT22;25973;52.368;4.940;2022-09-09T11:01:01;20.00;99.90
40255;DHT22;25973;52.368;4.940;2022-09-09T11:03:34;20.20;99.90
40255;DHT22;25973;52.368;4.940;2022-09-09T11:06:14;20.40;99.90
40255;DHT22;25973;52.368;4.940;2022-09-09T11:08:41;21.10;99.90
40255;DHT22;25973;52.368;4.940;2022-09-09T11:11:21;21.20;99.90
40255;DHT22;25973;52.368;4.940;2022-09-09T11:21:43;20.30;99.90
40255;DHT22;25973;52.368;4.940;2022-09-09T11:40:25;19.60;99.90
40255;DHT22;25973;52.368;4.940;2022-09-09T11:43:09;19.50;99.90
40255;DHT22;25973;52.368;4.940;2022-09-09T11:45:37;19.50;99.90
40255;DHT22;25973;52.368;4.940;2022-09-09T11:48:05;19.50;99.90
40255;DHT22;25973;52.368;4.940;2022-09-09T11:50:35;19.50;99.90
40255;DHT22;25973;52.368;4.940;2022-09-09T11:55:39;19.60;99.90
40255;DHT22;25973;52.368;4.940;2022-09-09T12:00:45;19.60;99.90
40255;DHT22;25973;52.368;4.940;2022-09-09T12:03:41;19.50;99.90
40255;DHT22;25973;52.368;4.940;2022-09-09T12:09:16;19.50;99.90
40255;DHT22;25973;52.368;4.940;2022-09-09T12:11:43;19.50;99.90
40255;DHT22;25973;52.368;4.940;2022-09-09T12:14:20;19.50;99.90
40255;DHT22;25973;52.368;4.940;2022-09-09T12:16:46;19.60;99.90
40255;DHT22;25973;52.368;4.940;2022-09-09T12:19:21;19.80;99.90
40255;DHT22;25973;52.368;4.940;2022-09-09T12:22:07;19.90;99.90
40255;DHT22;25973;52.368;4.940;2022-09-09T12:24:58;19.90;99.90
40255;DHT22;25973;52.368;4.940;2022-09-09T12:27:41;19.80;99.90
40255;DHT22;25973;52.368;4.940;2022-09-09T12:30:17;19.80;99.90
40255;DHT22;25973;52.368;4.940;2022-09-09T12:32:42;19.80;99.90
40255;DHT22;25973;52.368;4.940;2022-09-09T12:35:19;19.90;99.90
40255;DHT22;25973;52.368;4.940;2022-09-09T12:38:01;19.80;99.90
40255;DHT22;25973;52.368;4.940;2022-09-09T12:40:32;19.90;99.90
40255;DHT22;25973;52.368;4.940;2022-09-09T12:43:00;19.80;99.90
40255;DHT22;25973;52.368;4.940;2022-09-09T12:45:29;19.80;99.90
40255;DHT22;25973;52.368;4.940;2022-09-09T12:48:07;19.80;99.90
40255;DHT22;25973;52.368;4.940;2022-09-09T12:51:03;19.70;99.90
40255;DHT22;25973;52.368;4.940;2022-09-09T12:53:35;19.70;99.90
40255;DHT22;25973;52.368;4.940;2022-09-09T12:56:07;19.70;99.90
40255;DHT22;25973;52.368;4.940;2022-09-09T12:58:35;19.70;99.90
40255;DHT22;25973;52.368;4.940;2022-09-09T13:01:03;19.60;99.90
40255;DHT22;25973;52.368;4.940;2022-09-09T13:03:31;19.60;99.90
40255;DHT22;25973;52.368;4.940;2022-09-09T13:06:10;19.60;99.90
40255;DHT22;25973;52.368;4.940;2022-09-09T13:08:37;19.60;99.90
40255;DHT22;25973;52.368;4.940;2022-09-09T13:11:07;19.60;99.90
40255;DHT22;25973;52.368;4.940;2022-09-09T13:13:40;19.60;99.90
40255;DHT22;25973;52.368;4.940;2022-09-09T13:16:36;19.60;99.90
40255;DHT22;25973;52.368;4.940;2022-09-09T13:19:07;19.70;99.90
40255;DHT22;25973;52.368;4.940;2022-09-09T13:21:37;19.70;99.90
40255;DHT22;25973;52.368;4.940;2022-09-09T13:24:40;19.70;99.90
40255;DHT22;25973;52.368;4.940;2022-09-09T13:27:26;19.80;99.90
40255;DHT22;25973;52.368;4.940;2022-09-09T13:29:54;19.70;99.90
40255;DHT22;25973;52.368;4.940;2022-09-09T13:32:24;19.70;99.90
40255;DHT22;25973;52.368;4.940;2022-09-09T13:34:58;19.60;99.90
40255;DHT22;25973;52.368;4.940;2022-09-09T13:37:37;19.50;99.90
40255;DHT22;25973;52.368;4.940;2022-09-09T13:40:04;19.40;99.90
40255;DHT22;25973;52.368;4.940;2022-09-09T13:42:39;19.30;99.90
40255;DHT22;25973;52.368;4.940;2022-09-09T13:45:17;19.20;99.90
40255;DHT22;25973;52.368;4.940;2022-09-09T13:47:45;19.00;99.90
40255;DHT22;25973;52.368;4.940;2022-09-09T13:50:27;19.00;99.90
40255;DHT22;25973;52.368;4.940;2022-09-09T13:52:55;18.90;99.90
40255;DHT22;25973;52.368;4.940;2022-09-09T13:55:28;18.90;99.90
40255;DHT22;25973;52.368;4.940;2022-09-09T13:58:01;18.90;99.90
40255;DHT22;25973;52.368;4.940;2022-09-09T14:00:30;18.90;99.90
40255;DHT22;25973;52.368;4.940;2022-09-09T14:02:56;19.00;99.90
40255;DHT22;25973;52.368;4.940;2022-09-09T14:05:22;19.00;99.90
40255;DHT22;25973;52.368;4.940;2022-09-09T14:07:48;19.10;99.90
40255;DHT22;25973;52.368;4.940;2022-09-09T14:10:15;19.20;99.90
40255;DHT22;25973;52.368;4.940;2022-09-09T14:12:40;19.20;99.90
40255;DHT22;25973;52.368;4.940;2022-09-09T14:15:10;19.20;99.90
40255;DHT22;25973;52.368;4.940;2022-09-09T14:17:37;19.20;99.90
40255;DHT22;25973;52.368;4.940;2022-09-09T14:20:06;19.20;99.90
40255;DHT22;25973;52.368;4.940;2022-09-09T14:22:35;19.30;99.90
40255;DHT22;25973;52.368;4.940;2022-09-09T14:25:01;19.30;99.90
40255;DHT22;25973;52.368;4.940;2022-09-09T14:27:27;19.40;99.90
40255;DHT22;25973;52.368;4.940;2022-09-09T14:29:52;19.30;99.90
40255;DHT22;25973;52.368;4.940;2022-09-09T14:32:19;19.30;99.90
40255;DHT22;25973;52.368;4.940;2022-09-09T14:34:44;19.30;99.90
40255;DHT22;25973;52.368;4.940;2022-09-09T14:37:10;19.40;99.90
40255;DHT22;25973;52.368;4.940;2022-09-09T14:39:36;19.40;99.90
40255;DHT22;25973;52.368;4.940;2022-09-09T14:42:01;19.40;99.90
40255;DHT22;25973;52.368;4.940;2022-09-09T14:44:27;19.50;99.90
40255;DHT22;25973;52.368;4.940;2022-09-09T14:46:53;19.50;99.90
40255;DHT22;25973;52.368;4.940;2022-09-09T14:49:19;19.60;99.90
40255;DHT22;25973;52.368;4.940;2022-09-09T14:51:45;19.70;99.90
40255;DHT22;25973;52.368;4.940;2022-09-09T14:54:10;19.80;99.90
40255;DHT22;25973;52.368;4.940;2022-09-09T14:56:36;19.80;99.90
40255;DHT22;25973;52.368;4.940;2022-09-09T14:59:02;19.80;99.90
40255;DHT22;25973;52.368;4.940;2022-09-09T15:01:30;19.90;99.90
40255;DHT22;25973;52.368;4.940;2022-09-09T15:03:58;19.90;99.90
40255;DHT22;25973;52.368;4.940;2022-09-09T15:06:26;20.00;99.90
40255;DHT22;25973;52.368;4.940;2022-09-09T15:08:53;20.00;99.90
40255;DHT22;25973;52.368;4.940;2022-09-09T15:11:19;20.00;99.90
40255;DHT22;25973;52.368;4.940;2022-09-09T15:13:45;20.00;99.90
40255;DHT22;25973;52.368;4.940;2022-09-09T15:16:15;20.00;99.90
40255;DHT22;25973;52.368;4.940;2022-09-09T15:18:41;20.00;99.90
40255;DHT22;25973;52.368;4.940;2022-09-09T15:21:13;20.00;99.90
40255;DHT22;25973;52.368;4.940;2022-09-09T15:23:39;20.00;99.90
40255;DHT22;25973;52.368;4.940;2022-09-09T15:26:05;19.90;99.90
40255;DHT22;25973;52.368;4.940;2022-09-09T15:28:33;19.90;99.90
40255;DHT22;25973;52.368;4.940;2022-09-09T15:31:15;19.80;99.90
40255;DHT22;25973;52.368;4.940;2022-09-09T15:33:47;19.80;99.90
40255;DHT22;25973;52.368;4.940;2022-09-09T15:36:24;19.70;99.90
40255;DHT22;25973;52.368;4.940;2022-09-09T15:38:50;19.70;99.90
40255;DHT22;25973;52.368;4.940;2022-09-09T15:41:17;19.70;99.90
40255;DHT22;25973;52.368;4.940;2022-09-09T15:43:55;19.60;99.90
40255;DHT22;25973;52.368;4.940;2022-09-09T15:46:30;19.60;99.90
40255;DHT22;25973;52.368;4.940;2022-09-09T15:49:04;19.50;99.90
40255;DHT22;25973;52.368;4.940;2022-09-09T15:51:30;19.50;99.90
40255;DHT22;25973;52.368;4.940;2022-09-09T15:53:57;19.50;99.90
40255;DHT22;25973;52.368;4.940;2022-09-09T15:56:23;19.40;99.90
40255;DHT22;25973;52.368;4.940;2022-09-09T15:58:49;19.40;99.90
40255;DHT22;25973;52.368;4.940;2022-09-09T16:01:15;19.40;99.90
40255;DHT22;25973;52.368;4.940;2022-09-09T16:03:42;19.50;99.90
40255;DHT22;25973;52.368;4.940;2022-09-09T16:06:09;19.50;99.90
40255;DHT22;25973;52.368;4.940;2022-09-09T16:08:37;19.50;99.90
40255;DHT22;25973;52.368;4.940;2022-09-09T16:11:14;19.40;99.90
40255;DHT22;25973;52.368;4.940;2022-09-09T16:13:41;19.50;99.90
40255;DHT22;25973;52.368;4.940;2022-09-09T16:16:10;19.50;99.90
40255;DHT22;25973;52.368;4.940;2022-09-09T16:18:44;19.50;99.90
40255;DHT22;25973;52.368;4.940;2022-09-09T16:21:16;19.50;99.90
40255;DHT22;25973;52.368;4.940;2022-09-09T16:23:52;19.40;99.90
40255;DHT22;25973;52.368;4.940;2022-09-09T16:26:19;19.40;99.90
40255;DHT22;25973;52.368;4.940;2022-09-09T16:28:45;19.30;99.90
40255;DHT22;25973;52.368;4.940;2022-09-09T16:31:16;19.30;99.90
40255;DHT22;25973;52.368;4.940;2022-09-09T16:33:46;19.30;99.90
40255;DHT22;25973;52.368;4.940;2022-09-09T16:36:14;19.30;99.90
40255;DHT22;25973;52.368;4.940;2022-09-09T16:38:40;19.30;99.90
40255;DHT22;25973;52.368;4.940;2022-09-09T16:41:07;19.20;99.90
40255;DHT22;25973;52.368;4.940;2022-09-09T16:43:34;19.20;99.90
40255;DHT22;25973;52.368;4.940;2022-09-09T16:46:01;19.10;99.90
40255;DHT22;25973;52.368;4.940;2022-09-09T16:48:31;19.20;99.90
40255;DHT22;25973;52.368;4.940;2022-09-09T16:51:05;19.20;99.90
40255;DHT22;25973;52.368;4.940;2022-09-09T16:53:34;19.10;99.90
40255;DHT22;25973;52.368;4.940;2022-09-09T16:56:07;19.10;99.90
40255;DHT22;25973;52.368;4.940;2022-09-09T16:58:32;19.10;99.90
40255;DHT22;25973;52.368;4.940;2022-09-09T17:00:59;19.00;99.90
40255;DHT22;25973;52.368;4.940;2022-09-09T17:03:25;19.00;99.90
40255;DHT22;25973;52.368;4.940;2022-09-09T17:05:51;19.00;99.90
40255;DHT22;25973;52.368;4.940;2022-09-09T17:08:17;19.00;99.90
40255;DHT22;25973;52.368;4.940;2022-09-09T17:10:42;19.00;99.90
40255;DHT22;25973;52.368;4.940;2022-09-09T17:13:08;19.00;99.90
40255;DHT22;25973;52.368;4.940;2022-09-09T17:15:40;18.90;99.90
40255;DHT22;25973;52.368;4.940;2022-09-09T17:18:11;18.90;99.90
40255;DHT22;25973;52.368;4.940;2022-09-09T17:20:38;18.80;99.90
40255;DHT22;25973;52.368;4.940;2022-09-09T17:23:05;18.80;99.90
40255;DHT22;25973;52.368;4.940;2022-09-09T17:25:31;18.80;99.90
40255;DHT22;25973;52.368;4.940;2022-09-09T17:27:56;18.80;99.90
40255;DHT22;25973;52.368;4.940;2022-09-09T17:30:25;18.80;99.90
40255;DHT22;25973;52.368;4.940;2022-09-09T17:32:51;18.90;99.90
40255;DHT22;25973;52.368;4.940;2022-09-09T17:35:17;18.80;99.90